EXS49YF EGCC-GCTS
Flight info
| Callsign | EXS49YF |
|---|---|
| Flight time | N/A |
| Altitude | 40000 |
| Route | N0464F400 KUXEM P17 BEPHE DCT OSSEP DCT ELNIF DCT ZESPE DCT KLAKI DCT ANNET DCT KORUL/N0464F410 DCT AGADO DCT ASMOV DCT ORSOS DCT BEXAL UN866 KONBA |
| Aircraft | A332/H-SDE1FGHIJ4J5M1P2RWXYZ/LB2D1 |
Departure
| Time | N/A |
|---|---|
| Airport | Manchester Airport (EGCC) |
Arrival
| Time | 2026-04-27 11:54 |
|---|---|
| Airport | Tenerife Sur Airport (GCTS) |
| Time | Latitude | Longitude | Altitude | Speed | Heading |
|---|---|---|---|---|---|
| 2026-04-27 11:46 | 28.19066 | -16.92966 | 6681 ft | 284 kts | 166° |
| 2026-04-27 11:46 | 28.17142 | -16.92515 | 6363 ft | 280 kts | 166° |
| 2026-04-27 11:46 | 28.15246 | -16.92044 | 6038 ft | 278 kts | 166° |
| 2026-04-27 11:46 | 28.13367 | -16.91570 | 5693 ft | 275 kts | 165° |
| 2026-04-27 11:47 | 28.11508 | -16.91098 | 5377 ft | 273 kts | 166° |
| 2026-04-27 11:47 | 28.09666 | -16.90630 | 5052 ft | 270 kts | 166° |
| 2026-04-27 11:47 | 28.07846 | -16.90167 | 4738 ft | 267 kts | 166° |
| 2026-04-27 11:47 | 28.06039 | -16.89703 | 4413 ft | 264 kts | 164° |
| 2026-04-27 11:48 | 28.04343 | -16.88931 | 4143 ft | 262 kts | 146° |
| 2026-04-27 11:48 | 28.03000 | -16.87590 | 3852 ft | 256 kts | 125° |
| 2026-04-27 11:48 | 28.02064 | -16.85896 | 3575 ft | 253 kts | 117° |
| 2026-04-27 11:48 | 28.01253 | -16.84129 | 3315 ft | 252 kts | 115° |
| 2026-04-27 11:49 | 28.00473 | -16.82365 | 3047 ft | 249 kts | 114° |
| 2026-04-27 11:49 | 27.99712 | -16.80636 | 2899 ft | 241 kts | 114° |
| 2026-04-27 11:49 | 27.98981 | -16.78975 | 2761 ft | 231 kts | 114° |
| 2026-04-27 11:49 | 27.98334 | -16.77375 | 2627 ft | 221 kts | 103° |
| 2026-04-27 11:50 | 27.98212 | -16.75701 | 2523 ft | 208 kts | 83° |
| 2026-04-27 11:50 | 27.98523 | -16.74174 | 2497 ft | 191 kts | 67° |
| 2026-04-27 11:50 | 27.99013 | -16.72835 | 2486 ft | 177 kts | 64° |
| 2026-04-27 11:50 | 27.99456 | -16.71596 | 2489 ft | 164 kts | 65° |
| 2026-04-27 11:51 | 27.99868 | -16.70412 | 2391 ft | 159 kts | 66° |
| 2026-04-27 11:51 | 28.00274 | -16.69242 | 2166 ft | 161 kts | 68° |
| 2026-04-27 11:51 | 28.01097 | -16.66878 | 1730 ft | 161 kts | 69° |
| 2026-04-27 11:52 | 28.01508 | -16.65697 | 1509 ft | 159 kts | 69° |
| 2026-04-27 11:52 | 28.01902 | -16.64570 | 1308 ft | 148 kts | 69° |
| 2026-04-27 11:52 | 28.02263 | -16.63533 | 1104 ft | 136 kts | 69° |
| 2026-04-27 11:52 | 28.02603 | -16.62553 | 918 ft | 132 kts | 70° |
| 2026-04-27 11:53 | 28.02940 | -16.61582 | 729 ft | 133 kts | 71° |
| 2026-04-27 11:53 | 28.03277 | -16.60606 | 563 ft | 134 kts | 70° |
| 2026-04-27 11:53 | 28.03617 | -16.59643 | 389 ft | 134 kts | 70° |
| 2026-04-27 11:53 | 28.03955 | -16.58662 | 234 ft | 133 kts | 71° |
| 2026-04-27 11:54 | 28.04269 | -16.57752 | 204 ft | 104 kts | 68° |
| 2026-04-27 11:54 | 28.04463 | -16.57200 | 205 ft | 47 kts | 67° |
| 2026-04-27 11:54 | 28.04576 | -16.56984 | 216 ft | 29 kts | 49° |
| 2026-04-27 11:54 | 28.04693 | -16.56829 | 227 ft | 20 kts | 49° |
| 2026-04-27 11:55 | 28.04763 | -16.56795 | 223 ft | 8 kts | 325° |
| 2026-04-27 11:55 | 28.04779 | -16.56854 | 223 ft | 9 kts | 263° |
| 2026-04-27 11:55 | 28.04755 | -16.56919 | 226 ft | 9 kts | 246° |
| 2026-04-27 11:55 | 28.04730 | -16.56990 | 227 ft | 10 kts | 249° |
| 2026-04-27 11:56 | 28.04703 | -16.57068 | 226 ft | 11 kts | 249° |
| 2026-04-27 11:56 | 28.04668 | -16.57151 | 226 ft | 13 kts | 243° |
| 2026-04-27 11:56 | 28.04632 | -16.57249 | 226 ft | 14 kts | 249° |
| 2026-04-27 11:56 | 28.04593 | -16.57358 | 226 ft | 16 kts | 248° |
| 2026-04-27 11:57 | 28.04551 | -16.57483 | 226 ft | 18 kts | 249° |
| 2026-04-27 11:57 | 28.04503 | -16.57620 | 226 ft | 19 kts | 248° |
| 2026-04-27 11:57 | 28.04451 | -16.57767 | 226 ft | 21 kts | 248° |
| 2026-04-27 11:57 | 28.04398 | -16.57919 | 226 ft | 20 kts | 249° |
| 2026-04-27 11:58 | 28.04345 | -16.58071 | 227 ft | 19 kts | 248° |
| 2026-04-27 11:58 | 28.04321 | -16.58162 | 226 ft | 8 kts | 276° |
| 2026-04-27 11:58 | 28.04360 | -16.58195 | 226 ft | 8 kts | 340° |
| 2026-04-27 11:58 | 28.04408 | -16.58224 | 228 ft | 7 kts | 312° |
| 2026-04-27 11:59 | 28.04437 | -16.58268 | 229 ft | 7 kts | 326° |
| 2026-04-27 11:59 | 28.04478 | -16.58287 | 229 ft | 6 kts | 339° |
| 2026-04-27 11:59 | 28.04503 | -16.58298 | 230 ft | 0 kts | 338° |